sensor_id;sensor_type;location;lat;lon;timestamp;P1;durP1;ratioP1;P2;durP2;ratioP2
73684;SDS011;61985;51.070;14.064;2023-11-21T00:02:15;3.28;;;1.50;;
73684;SDS011;61985;51.070;14.064;2023-11-21T00:04:41;3.40;;;1.60;;
73684;SDS011;61985;51.070;14.064;2023-11-21T00:07:06;2.65;;;1.75;;
73684;SDS011;61985;51.070;14.064;2023-11-21T00:09:32;4.88;;;2.30;;
73684;SDS011;61985;51.070;14.064;2023-11-21T00:11:57;2.58;;;1.77;;
73684;SDS011;61985;51.070;14.064;2023-11-21T00:14:24;4.60;;;1.60;;
73684;SDS011;61985;51.070;14.064;2023-11-21T00:16:50;2.22;;;1.27;;
73684;SDS011;61985;51.070;14.064;2023-11-21T00:19:15;1.48;;;1.17;;
73684;SDS011;61985;51.070;14.064;2023-11-21T00:21:41;2.85;;;1.40;;
73684;SDS011;61985;51.070;14.064;2023-11-21T00:24:09;2.63;;;1.63;;
73684;SDS011;61985;51.070;14.064;2023-11-21T00:26:34;2.53;;;1.60;;
73684;SDS011;61985;51.070;14.064;2023-11-21T00:29:02;2.65;;;1.80;;
73684;SDS011;61985;51.070;14.064;2023-11-21T00:31:27;3.38;;;1.73;;
73684;SDS011;61985;51.070;14.064;2023-11-21T00:33:53;2.90;;;1.80;;
73684;SDS011;61985;51.070;14.064;2023-11-21T00:36:20;4.32;;;2.15;;
73684;SDS011;61985;51.070;14.064;2023-11-21T00:38:45;4.97;;;2.10;;
73684;SDS011;61985;51.070;14.064;2023-11-21T00:41:11;3.13;;;1.65;;
73684;SDS011;61985;51.070;14.064;2023-11-21T00:43:36;4.10;;;2.15;;
73684;SDS011;61985;51.070;14.064;2023-11-21T00:46:08;3.22;;;1.90;;
73684;SDS011;61985;51.070;14.064;2023-11-21T00:48:33;3.20;;;2.00;;
73684;SDS011;61985;51.070;14.064;2023-11-21T00:50:59;3.22;;;1.70;;
73684;SDS011;61985;51.070;14.064;2023-11-21T00:53:24;5.18;;;1.85;;
73684;SDS011;61985;51.070;14.064;2023-11-21T00:55:49;4.88;;;2.20;;
73684;SDS011;61985;51.070;14.064;2023-11-21T00:58:17;4.97;;;1.80;;
73684;SDS011;61985;51.070;14.064;2023-11-21T01:00:42;3.28;;;1.73;;
73684;SDS011;61985;51.070;14.064;2023-11-21T01:03:08;3.95;;;2.03;;
73684;SDS011;61985;51.070;14.064;2023-11-21T01:05:34;4.75;;;2.20;;
73684;SDS011;61985;51.070;14.064;2023-11-21T01:07:59;3.30;;;1.70;;
73684;SDS011;61985;51.070;14.064;2023-11-21T01:10:25;2.95;;;1.90;;
73684;SDS011;61985;51.070;14.064;2023-11-21T01:12:50;2.45;;;1.58;;
73684;SDS011;61985;51.070;14.064;2023-11-21T01:15:16;2.25;;;1.75;;
73684;SDS011;61985;51.070;14.064;2023-11-21T01:17:41;6.00;;;1.90;;
73684;SDS011;61985;51.070;14.064;2023-11-21T01:20:08;3.67;;;1.92;;
73684;SDS011;61985;51.070;14.064;2023-11-21T01:22:37;3.92;;;1.98;;
73684;SDS011;61985;51.070;14.064;2023-11-21T01:25:03;5.05;;;1.73;;
73684;SDS011;61985;51.070;14.064;2023-11-21T01:27:31;8.52;;;2.47;;
73684;SDS011;61985;51.070;14.064;2023-11-21T01:29:56;4.57;;;1.75;;
73684;SDS011;61985;51.070;14.064;2023-11-21T01:32:22;5.40;;;2.13;;
73684;SDS011;61985;51.070;14.064;2023-11-21T01:34:47;6.60;;;2.30;;
73684;SDS011;61985;51.070;14.064;2023-11-21T01:37:13;7.20;;;2.17;;
73684;SDS011;61985;51.070;14.064;2023-11-21T01:39:38;5.00;;;2.00;;
73684;SDS011;61985;51.070;14.064;2023-11-21T01:42:04;4.60;;;2.20;;
73684;SDS011;61985;51.070;14.064;2023-11-21T01:44:30;6.05;;;2.15;;
73684;SDS011;61985;51.070;14.064;2023-11-21T01:46:55;4.55;;;2.00;;
73684;SDS011;61985;51.070;14.064;2023-11-21T01:49:22;4.32;;;2.15;;
73684;SDS011;61985;51.070;14.064;2023-11-21T01:51:48;3.80;;;1.83;;
73684;SDS011;61985;51.070;14.064;2023-11-21T01:54:18;6.55;;;2.13;;
73684;SDS011;61985;51.070;14.064;2023-11-21T01:56:47;5.90;;;2.05;;
73684;SDS011;61985;51.070;14.064;2023-11-21T01:59:19;6.63;;;2.05;;
73684;SDS011;61985;51.070;14.064;2023-11-21T02:01:49;9.73;;;2.50;;
73684;SDS011;61985;51.070;14.064;2023-11-21T02:04:15;6.90;;;2.05;;
73684;SDS011;61985;51.070;14.064;2023-11-21T02:06:40;7.70;;;2.90;;
73684;SDS011;61985;51.070;14.064;2023-11-21T02:09:06;5.18;;;2.30;;
73684;SDS011;61985;51.070;14.064;2023-11-21T02:11:31;6.88;;;2.80;;
73684;SDS011;61985;51.070;14.064;2023-11-21T02:13:59;4.40;;;2.00;;
73684;SDS011;61985;51.070;14.064;2023-11-21T02:16:25;5.85;;;2.08;;
73684;SDS011;61985;51.070;14.064;2023-11-21T02:18:52;3.85;;;2.00;;
73684;SDS011;61985;51.070;14.064;2023-11-21T02:21:17;6.18;;;2.20;;
73684;SDS011;61985;51.070;14.064;2023-11-21T02:23:44;7.10;;;1.95;;
73684;SDS011;61985;51.070;14.064;2023-11-21T02:26:11;7.20;;;2.25;;
73684;SDS011;61985;51.070;14.064;2023-11-21T02:28:37;5.88;;;1.95;;
73684;SDS011;61985;51.070;14.064;2023-11-21T02:31:04;4.70;;;2.17;;
73684;SDS011;61985;51.070;14.064;2023-11-21T02:33:30;5.13;;;2.30;;
73684;SDS011;61985;51.070;14.064;2023-11-21T02:35:59;4.18;;;2.33;;
73684;SDS011;61985;51.070;14.064;2023-11-21T02:38:25;6.30;;;2.47;;
73684;SDS011;61985;51.070;14.064;2023-11-21T02:40:50;5.63;;;2.50;;
73684;SDS011;61985;51.070;14.064;2023-11-21T02:43:15;4.18;;;2.20;;
73684;SDS011;61985;51.070;14.064;2023-11-21T02:45:41;11.13;;;2.55;;
73684;SDS011;61985;51.070;14.064;2023-11-21T02:48:07;6.07;;;2.20;;
73684;SDS011;61985;51.070;14.064;2023-11-21T02:50:32;5.85;;;2.20;;
73684;SDS011;61985;51.070;14.064;2023-11-21T02:53:00;4.78;;;2.05;;
73684;SDS011;61985;51.070;14.064;2023-11-21T02:55:26;6.60;;;2.53;;
73684;SDS011;61985;51.070;14.064;2023-11-21T02:57:51;4.80;;;2.45;;
73684;SDS011;61985;51.070;14.064;2023-11-21T03:00:17;7.63;;;2.47;;
73684;SDS011;61985;51.070;14.064;2023-11-21T03:02:43;6.70;;;2.45;;
73684;SDS011;61985;51.070;14.064;2023-11-21T03:05:08;6.20;;;2.40;;
73684;SDS011;61985;51.070;14.064;2023-11-21T03:07:36;4.20;;;2.20;;
73684;SDS011;61985;51.070;14.064;2023-11-21T03:10:02;6.03;;;2.50;;
73684;SDS011;61985;51.070;14.064;2023-11-21T03:12:29;4.65;;;1.95;;
73684;SDS011;61985;51.070;14.064;2023-11-21T03:14:54;7.80;;;2.30;;
73684;SDS011;61985;51.070;14.064;2023-11-21T03:17:20;8.15;;;2.78;;
73684;SDS011;61985;51.070;14.064;2023-11-21T03:19:46;7.55;;;2.58;;
73684;SDS011;61985;51.070;14.064;2023-11-21T03:22:11;5.88;;;2.15;;
73684;SDS011;61985;51.070;14.064;2023-11-21T03:24:36;5.22;;;2.03;;
73684;SDS011;61985;51.070;14.064;2023-11-21T03:27:03;4.95;;;2.13;;
73684;SDS011;61985;51.070;14.064;2023-11-21T03:29:29;4.53;;;1.90;;
73684;SDS011;61985;51.070;14.064;2023-11-21T03:31:54;7.97;;;2.20;;
73684;SDS011;61985;51.070;14.064;2023-11-21T03:34:29;4.60;;;2.30;;
73684;SDS011;61985;51.070;14.064;2023-11-21T03:36:54;4.85;;;2.45;;
73684;SDS011;61985;51.070;14.064;2023-11-21T03:39:20;5.05;;;2.10;;
73684;SDS011;61985;51.070;14.064;2023-11-21T03:41:46;6.82;;;2.20;;
73684;SDS011;61985;51.070;14.064;2023-11-21T03:44:12;6.53;;;2.42;;
73684;SDS011;61985;51.070;14.064;2023-11-21T03:46:38;6.38;;;2.70;;
73684;SDS011;61985;51.070;14.064;2023-11-21T03:49:04;9.55;;;2.80;;
73684;SDS011;61985;51.070;14.064;2023-11-21T03:51:29;6.90;;;2.58;;
73684;SDS011;61985;51.070;14.064;2023-11-21T03:53:54;7.47;;;2.25;;
73684;SDS011;61985;51.070;14.064;2023-11-21T03:56:20;14.90;;;2.88;;
73684;SDS011;61985;51.070;14.064;2023-11-21T03:58:48;5.88;;;2.40;;
73684;SDS011;61985;51.070;14.064;2023-11-21T04:01:23;7.30;;;2.63;;
73684;SDS011;61985;51.070;14.064;2023-11-21T04:03:49;3.83;;;1.90;;
73684;SDS011;61985;51.070;14.064;2023-11-21T04:06:16;6.72;;;2.55;;
73684;SDS011;61985;51.070;14.064;2023-11-21T04:08:42;12.00;;;3.47;;
73684;SDS011;61985;51.070;14.064;2023-11-21T04:11:09;6.72;;;3.45;;
73684;SDS011;61985;51.070;14.064;2023-11-21T04:13:36;8.23;;;2.60;;
73684;SDS011;61985;51.070;14.064;2023-11-21T04:16:03;7.28;;;3.22;;
73684;SDS011;61985;51.070;14.064;2023-11-21T04:18:30;5.25;;;2.33;;
73684;SDS011;61985;51.070;14.064;2023-11-21T04:20:55;8.05;;;2.70;;
73684;SDS011;61985;51.070;14.064;2023-11-21T04:23:20;6.18;;;2.45;;
73684;SDS011;61985;51.070;14.064;2023-11-21T04:25:46;5.03;;;2.17;;
73684;SDS011;61985;51.070;14.064;2023-11-21T04:28:11;6.38;;;2.78;;
73684;SDS011;61985;51.070;14.064;2023-11-21T04:30:37;6.72;;;2.35;;
73684;SDS011;61985;51.070;14.064;2023-11-21T04:33:04;5.78;;;2.63;;
73684;SDS011;61985;51.070;14.064;2023-11-21T04:35:30;7.18;;;2.80;;
73684;SDS011;61985;51.070;14.064;2023-11-21T04:37:55;6.35;;;2.90;;
73684;SDS011;61985;51.070;14.064;2023-11-21T04:40:22;5.50;;;2.35;;
73684;SDS011;61985;51.070;14.064;2023-11-21T04:42:47;8.50;;;3.17;;
73684;SDS011;61985;51.070;14.064;2023-11-21T04:45:13;7.70;;;2.78;;
73684;SDS011;61985;51.070;14.064;2023-11-21T04:47:38;6.05;;;2.42;;
73684;SDS011;61985;51.070;14.064;2023-11-21T04:50:04;6.43;;;2.50;;
73684;SDS011;61985;51.070;14.064;2023-11-21T04:52:30;6.20;;;2.47;;
73684;SDS011;61985;51.070;14.064;2023-11-21T04:54:57;6.65;;;2.58;;
73684;SDS011;61985;51.070;14.064;2023-11-21T04:57:23;8.20;;;2.65;;
73684;SDS011;61985;51.070;14.064;2023-11-21T04:59:49;10.85;;;2.45;;
73684;SDS011;61985;51.070;14.064;2023-11-21T05:02:15;7.20;;;2.67;;
73684;SDS011;61985;51.070;14.064;2023-11-21T05:04:41;9.95;;;4.82;;
73684;SDS011;61985;51.070;14.064;2023-11-21T05:07:07;7.45;;;3.20;;
73684;SDS011;61985;51.070;14.064;2023-11-21T05:09:33;9.05;;;3.20;;
73684;SDS011;61985;51.070;14.064;2023-11-21T05:11:59;8.02;;;3.40;;
73684;SDS011;61985;51.070;14.064;2023-11-21T05:14:25;11.70;;;3.30;;
73684;SDS011;61985;51.070;14.064;2023-11-21T05:16:50;5.75;;;2.72;;
73684;SDS011;61985;51.070;14.064;2023-11-21T05:19:16;6.15;;;2.90;;
73684;SDS011;61985;51.070;14.064;2023-11-21T05:21:42;10.88;;;3.08;;
73684;SDS011;61985;51.070;14.064;2023-11-21T05:24:08;5.50;;;2.60;;
73684;SDS011;61985;51.070;14.064;2023-11-21T05:26:34;6.57;;;2.90;;
73684;SDS011;61985;51.070;14.064;2023-11-21T05:29:00;6.55;;;2.80;;
73684;SDS011;61985;51.070;14.064;2023-11-21T05:31:25;9.63;;;3.33;;
73684;SDS011;61985;51.070;14.064;2023-11-21T05:33:52;11.55;;;3.03;;
73684;SDS011;61985;51.070;14.064;2023-11-21T05:36:18;8.80;;;2.80;;
73684;SDS011;61985;51.070;14.064;2023-11-21T05:38:43;6.13;;;2.80;;
73684;SDS011;61985;51.070;14.064;2023-11-21T05:41:08;8.05;;;3.03;;
73684;SDS011;61985;51.070;14.064;2023-11-21T05:43:36;8.55;;;2.70;;
73684;SDS011;61985;51.070;14.064;2023-11-21T05:46:01;14.02;;;3.40;;
73684;SDS011;61985;51.070;14.064;2023-11-21T05:48:27;13.85;;;3.08;;
73684;SDS011;61985;51.070;14.064;2023-11-21T05:50:52;45.35;;;20.83;;
73684;SDS011;61985;51.070;14.064;2023-11-21T05:53:18;11.30;;;4.20;;
73684;SDS011;61985;51.070;14.064;2023-11-21T05:55:43;10.98;;;3.78;;
73684;SDS011;61985;51.070;14.064;2023-11-21T05:58:08;7.78;;;3.28;;
73684;SDS011;61985;51.070;14.064;2023-11-21T06:00:34;8.30;;;3.28;;
73684;SDS011;61985;51.070;14.064;2023-11-21T06:02:59;13.43;;;3.60;;
73684;SDS011;61985;51.070;14.064;2023-11-21T06:05:25;8.63;;;3.80;;
73684;SDS011;61985;51.070;14.064;2023-11-21T06:07:51;8.10;;;3.60;;
73684;SDS011;61985;51.070;14.064;2023-11-21T06:10:23;6.88;;;3.22;;
73684;SDS011;61985;51.070;14.064;2023-11-21T06:12:49;10.27;;;4.00;;
73684;SDS011;61985;51.070;14.064;2023-11-21T06:15:14;11.07;;;3.80;;
73684;SDS011;61985;51.070;14.064;2023-11-21T06:17:41;8.88;;;3.53;;
73684;SDS011;61985;51.070;14.064;2023-11-21T06:20:08;11.40;;;3.80;;
73684;SDS011;61985;51.070;14.064;2023-11-21T06:22:38;9.02;;;3.10;;
73684;SDS011;61985;51.070;14.064;2023-11-21T06:25:04;12.15;;;3.33;;
73684;SDS011;61985;51.070;14.064;2023-11-21T06:27:34;12.63;;;3.05;;
73684;SDS011;61985;51.070;14.064;2023-11-21T06:30:02;6.53;;;2.63;;
73684;SDS011;61985;51.070;14.064;2023-11-21T06:32:28;8.02;;;2.80;;
73684;SDS011;61985;51.070;14.064;2023-11-21T06:34:55;7.88;;;2.80;;
73684;SDS011;61985;51.070;14.064;2023-11-21T06:37:20;8.13;;;3.15;;
73684;SDS011;61985;51.070;14.064;2023-11-21T06:39:48;6.30;;;3.00;;
73684;SDS011;61985;51.070;14.064;2023-11-21T06:42:14;13.20;;;3.17;;
73684;SDS011;61985;51.070;14.064;2023-11-21T06:44:40;9.23;;;3.47;;
73684;SDS011;61985;51.070;14.064;2023-11-21T06:47:06;9.25;;;2.90;;
73684;SDS011;61985;51.070;14.064;2023-11-21T06:49:32;9.40;;;3.53;;
73684;SDS011;61985;51.070;14.064;2023-11-21T06:51:57;9.55;;;3.67;;
73684;SDS011;61985;51.070;14.064;2023-11-21T06:54:23;8.85;;;3.30;;
73684;SDS011;61985;51.070;14.064;2023-11-21T06:56:49;7.28;;;3.22;;
73684;SDS011;61985;51.070;14.064;2023-11-21T06:59:15;7.18;;;3.08;;
73684;SDS011;61985;51.070;14.064;2023-11-21T07:01:40;10.55;;;3.75;;
73684;SDS011;61985;51.070;14.064;2023-11-21T07:04:06;8.95;;;3.72;;
73684;SDS011;61985;51.070;14.064;2023-11-21T07:06:32;8.65;;;3.97;;
73684;SDS011;61985;51.070;14.064;2023-11-21T07:08:58;9.75;;;3.92;;
73684;SDS011;61985;51.070;14.064;2023-11-21T07:11:26;11.75;;;4.38;;
73684;SDS011;61985;51.070;14.064;2023-11-21T07:13:52;11.05;;;3.83;;
73684;SDS011;61985;51.070;14.064;2023-11-21T07:16:19;10.30;;;3.85;;
73684;SDS011;61985;51.070;14.064;2023-11-21T07:37:00;12.43;;;4.45;;
73684;SDS011;61985;51.070;14.064;2023-11-21T07:39:26;9.43;;;4.82;;
73684;SDS011;61985;51.070;14.064;2023-11-21T07:41:51;13.32;;;4.53;;
73684;SDS011;61985;51.070;14.064;2023-11-21T07:44:17;13.82;;;5.90;;
73684;SDS011;61985;51.070;14.064;2023-11-21T07:46:42;13.55;;;4.68;;
73684;SDS011;61985;51.070;14.064;2023-11-21T07:49:08;21.75;;;8.40;;
73684;SDS011;61985;51.070;14.064;2023-11-21T07:51:34;20.55;;;8.38;;
73684;SDS011;61985;51.070;14.064;2023-11-21T07:53:59;19.35;;;6.35;;
73684;SDS011;61985;51.070;14.064;2023-11-21T07:56:25;17.13;;;5.32;;
73684;SDS011;61985;51.070;14.064;2023-11-21T07:58:51;15.60;;;4.72;;
73684;SDS011;61985;51.070;14.064;2023-11-21T08:01:20;25.08;;;14.30;;
73684;SDS011;61985;51.070;14.064;2023-11-21T08:03:45;13.52;;;6.38;;
73684;SDS011;61985;51.070;14.064;2023-11-21T08:06:10;14.63;;;6.53;;
73684;SDS011;61985;51.070;14.064;2023-11-21T08:08:37;17.05;;;8.10;;
73684;SDS011;61985;51.070;14.064;2023-11-21T08:11:02;15.05;;;5.43;;
73684;SDS011;61985;51.070;14.064;2023-11-21T08:13:29;22.00;;;9.93;;
73684;SDS011;61985;51.070;14.064;2023-11-21T08:15:55;16.17;;;6.93;;
73684;SDS011;61985;51.070;14.064;2023-11-21T08:20:54;18.55;;;7.57;;
73684;SDS011;61985;51.070;14.064;2023-11-21T08:23:20;13.45;;;5.95;;
73684;SDS011;61985;51.070;14.064;2023-11-21T08:25:45;15.32;;;6.38;;
73684;SDS011;61985;51.070;14.064;2023-11-21T08:28:11;20.13;;;6.65;;
73684;SDS011;61985;51.070;14.064;2023-11-21T08:30:37;15.98;;;7.65;;
73684;SDS011;61985;51.070;14.064;2023-11-21T08:33:02;19.58;;;5.93;;
73684;SDS011;61985;51.070;14.064;2023-11-21T08:35:28;16.63;;;5.85;;
73684;SDS011;61985;51.070;14.064;2023-11-21T08:37:54;16.52;;;5.93;;
73684;SDS011;61985;51.070;14.064;2023-11-21T08:40:20;16.48;;;7.03;;
73684;SDS011;61985;51.070;14.064;2023-11-21T08:42:46;23.75;;;9.68;;
73684;SDS011;61985;51.070;14.064;2023-11-21T08:45:13;13.85;;;6.38;;
73684;SDS011;61985;51.070;14.064;2023-11-21T08:47:42;22.65;;;7.68;;
73684;SDS011;61985;51.070;14.064;2023-11-21T08:50:09;17.42;;;7.40;;
73684;SDS011;61985;51.070;14.064;2023-11-21T08:52:37;12.60;;;5.05;;
73684;SDS011;61985;51.070;14.064;2023-11-21T08:55:06;14.32;;;4.63;;
73684;SDS011;61985;51.070;14.064;2023-11-21T08:57:37;14.10;;;5.15;;
73684;SDS011;61985;51.070;14.064;2023-11-21T09:00:04;10.50;;;4.22;;
73684;SDS011;61985;51.070;14.064;2023-11-21T09:02:32;16.45;;;4.28;;
73684;SDS011;61985;51.070;14.064;2023-11-21T09:04:59;11.23;;;4.00;;
73684;SDS011;61985;51.070;14.064;2023-11-21T09:07:28;10.02;;;3.78;;
73684;SDS011;61985;51.070;14.064;2023-11-21T09:09:53;9.27;;;3.80;;
73684;SDS011;61985;51.070;14.064;2023-11-21T09:12:19;9.75;;;3.72;;
73684;SDS011;61985;51.070;14.064;2023-11-21T09:14:46;5.95;;;3.10;;
73684;SDS011;61985;51.070;14.064;2023-11-21T09:17:11;8.85;;;3.40;;
73684;SDS011;61985;51.070;14.064;2023-11-21T09:19:40;8.18;;;3.33;;
73684;SDS011;61985;51.070;14.064;2023-11-21T09:22:06;13.38;;;6.82;;
73684;SDS011;61985;51.070;14.064;2023-11-21T09:24:32;16.73;;;8.05;;
73684;SDS011;61985;51.070;14.064;2023-11-21T09:26:58;21.67;;;10.52;;
73684;SDS011;61985;51.070;14.064;2023-11-21T09:29:25;24.48;;;12.50;;
73684;SDS011;61985;51.070;14.064;2023-11-21T09:31:54;11.98;;;5.15;;
73684;SDS011;61985;51.070;14.064;2023-11-21T09:34:20;9.07;;;4.13;;
73684;SDS011;61985;51.070;14.064;2023-11-21T09:36:46;8.25;;;3.17;;
73684;SDS011;61985;51.070;14.064;2023-11-21T09:39:12;5.82;;;3.05;;
73684;SDS011;61985;51.070;14.064;2023-11-21T09:41:50;5.88;;;2.97;;
73684;SDS011;61985;51.070;14.064;2023-11-21T09:44:22;5.45;;;2.92;;
73684;SDS011;61985;51.070;14.064;2023-11-21T09:46:54;5.30;;;3.00;;
73684;SDS011;61985;51.070;14.064;2023-11-21T09:49:24;5.68;;;3.00;;
73684;SDS011;61985;51.070;14.064;2023-11-21T09:51:51;7.40;;;3.17;;
73684;SDS011;61985;51.070;14.064;2023-11-21T09:54:21;9.73;;;4.13;;
73684;SDS011;61985;51.070;14.064;2023-11-21T09:56:46;5.65;;;3.00;;
73684;SDS011;61985;51.070;14.064;2023-11-21T09:59:13;7.82;;;3.13;;
73684;SDS011;61985;51.070;14.064;2023-11-21T10:01:40;4.28;;;2.20;;
73684;SDS011;61985;51.070;14.064;2023-11-21T10:04:07;3.03;;;1.70;;
73684;SDS011;61985;51.070;14.064;2023-11-21T10:06:41;2.90;;;1.50;;
73684;SDS011;61985;51.070;14.064;2023-11-21T10:09:09;1.67;;;1.13;;
73684;SDS011;61985;51.070;14.064;2023-11-21T10:11:39;3.13;;;1.83;;
73684;SDS011;61985;51.070;14.064;2023-11-21T10:14:11;5.57;;;2.70;;
73684;SDS011;61985;51.070;14.064;2023-11-21T10:16:38;8.63;;;3.17;;
73684;SDS011;61985;51.070;14.064;2023-11-21T10:19:05;9.88;;;4.53;;
73684;SDS011;61985;51.070;14.064;2023-11-21T10:21:34;5.82;;;3.50;;
73684;SDS011;61985;51.070;14.064;2023-11-21T10:24:00;8.40;;;4.70;;
73684;SDS011;61985;51.070;14.064;2023-11-21T10:26:26;6.45;;;3.80;;
73684;SDS011;61985;51.070;14.064;2023-11-21T10:29:00;9.65;;;5.93;;
73684;SDS011;61985;51.070;14.064;2023-11-21T10:31:29;14.45;;;8.15;;
73684;SDS011;61985;51.070;14.064;2023-11-21T10:34:14;8.68;;;4.70;;
73684;SDS011;61985;51.070;14.064;2023-11-21T10:36:41;8.40;;;4.47;;
73684;SDS011;61985;51.070;14.064;2023-11-21T10:39:06;6.82;;;3.35;;
73684;SDS011;61985;51.070;14.064;2023-11-21T10:41:32;7.90;;;3.85;;
73684;SDS011;61985;51.070;14.064;2023-11-21T10:43:58;7.63;;;3.90;;
73684;SDS011;61985;51.070;14.064;2023-11-21T10:46:23;7.50;;;4.00;;
73684;SDS011;61985;51.070;14.064;2023-11-21T10:48:54;8.50;;;3.72;;
73684;SDS011;61985;51.070;14.064;2023-11-21T10:51:21;7.68;;;3.83;;
73684;SDS011;61985;51.070;14.064;2023-11-21T10:53:46;9.40;;;4.28;;
73684;SDS011;61985;51.070;14.064;2023-11-21T10:56:13;7.43;;;4.20;;
73684;SDS011;61985;51.070;14.064;2023-11-21T10:58:44;7.68;;;3.85;;
73684;SDS011;61985;51.070;14.064;2023-11-21T11:01:10;7.35;;;3.85;;
73684;SDS011;61985;51.070;14.064;2023-11-21T11:03:39;7.35;;;4.22;;
73684;SDS011;61985;51.070;14.064;2023-11-21T11:06:06;12.98;;;4.90;;
73684;SDS011;61985;51.070;14.064;2023-11-21T11:08:36;12.85;;;7.20;;
73684;SDS011;61985;51.070;14.064;2023-11-21T11:11:02;13.10;;;6.82;;
73684;SDS011;61985;51.070;14.064;2023-11-21T11:13:29;14.10;;;6.72;;
73684;SDS011;61985;51.070;14.064;2023-11-21T11:15:59;16.75;;;7.05;;
73684;SDS011;61985;51.070;14.064;2023-11-21T11:18:29;23.45;;;10.27;;
73684;SDS011;61985;51.070;14.064;2023-11-21T11:20:57;12.15;;;5.80;;
73684;SDS011;61985;51.070;14.064;2023-11-21T11:31:52;12.80;;;6.65;;
73684;SDS011;61985;51.070;14.064;2023-11-21T11:34:34;13.05;;;6.38;;
73684;SDS011;61985;51.070;14.064;2023-11-21T11:37:05;14.80;;;6.35;;
73684;SDS011;61985;51.070;14.064;2023-11-21T11:39:35;15.68;;;6.47;;
73684;SDS011;61985;51.070;14.064;2023-11-21T11:42:02;15.35;;;7.40;;
73684;SDS011;61985;51.070;14.064;2023-11-21T11:47:25;14.80;;;6.53;;
73684;SDS011;61985;51.070;14.064;2023-11-21T11:52:46;12.77;;;7.20;;
73684;SDS011;61985;51.070;14.064;2023-11-21T11:55:14;13.77;;;7.30;;
73684;SDS011;61985;51.070;14.064;2023-11-21T11:57:43;13.25;;;7.20;;
73684;SDS011;61985;51.070;14.064;2023-11-21T12:00:16;11.55;;;6.20;;
73684;SDS011;61985;51.070;14.064;2023-11-21T12:02:54;12.02;;;6.25;;
73684;SDS011;61985;51.070;14.064;2023-11-21T12:05:25;12.95;;;6.20;;
73684;SDS011;61985;51.070;14.064;2023-11-21T12:07:57;12.73;;;7.35;;
73684;SDS011;61985;51.070;14.064;2023-11-21T12:10:25;11.45;;;6.43;;
73684;SDS011;61985;51.070;14.064;2023-11-21T12:12:54;11.80;;;6.38;;
73684;SDS011;61985;51.070;14.064;2023-11-21T12:15:21;12.70;;;7.05;;
73684;SDS011;61985;51.070;14.064;2023-11-21T12:17:47;10.35;;;5.82;;
73684;SDS011;61985;51.070;14.064;2023-11-21T12:20:14;17.73;;;8.43;;
73684;SDS011;61985;51.070;14.064;2023-11-21T12:22:52;31.50;;;15.75;;
73684;SDS011;61985;51.070;14.064;2023-11-21T12:25:19;15.85;;;9.00;;
73684;SDS011;61985;51.070;14.064;2023-11-21T12:27:46;12.85;;;6.80;;
73684;SDS011;61985;51.070;14.064;2023-11-21T12:30:20;16.40;;;6.30;;
73684;SDS011;61985;51.070;14.064;2023-11-21T12:32:50;17.92;;;7.78;;
73684;SDS011;61985;51.070;14.064;2023-11-21T12:35:17;22.25;;;6.75;;
73684;SDS011;61985;51.070;14.064;2023-11-21T12:37:45;14.85;;;7.05;;
73684;SDS011;61985;51.070;14.064;2023-11-21T12:40:11;14.30;;;5.40;;
73684;SDS011;61985;51.070;14.064;2023-11-21T12:42:40;11.23;;;5.63;;
73684;SDS011;61985;51.070;14.064;2023-11-21T12:45:18;14.73;;;5.82;;
73684;SDS011;61985;51.070;14.064;2023-11-21T12:47:45;22.70;;;7.70;;
73684;SDS011;61985;51.070;14.064;2023-11-21T12:50:20;14.30;;;7.03;;
73684;SDS011;61985;51.070;14.064;2023-11-21T12:52:55;17.92;;;7.53;;
73684;SDS011;61985;51.070;14.064;2023-11-21T12:55:24;19.17;;;7.70;;
73684;SDS011;61985;51.070;14.064;2023-11-21T12:57:52;16.20;;;7.72;;
73684;SDS011;61985;51.070;14.064;2023-11-21T13:00:29;17.93;;;9.50;;
73684;SDS011;61985;51.070;14.064;2023-11-21T13:02:58;16.83;;;7.20;;
73684;SDS011;61985;51.070;14.064;2023-11-21T13:05:27;16.73;;;8.07;;
73684;SDS011;61985;51.070;14.064;2023-11-21T13:07:59;18.58;;;8.73;;
73684;SDS011;61985;51.070;14.064;2023-11-21T13:10:28;16.65;;;7.60;;
73684;SDS011;61985;51.070;14.064;2023-11-21T13:12:56;15.63;;;7.82;;
73684;SDS011;61985;51.070;14.064;2023-11-21T13:15:23;14.05;;;5.70;;
73684;SDS011;61985;51.070;14.064;2023-11-21T13:17:49;9.23;;;4.50;;
73684;SDS011;61985;51.070;14.064;2023-11-21T13:20:16;10.70;;;5.07;;
73684;SDS011;61985;51.070;14.064;2023-11-21T13:22:49;14.00;;;5.15;;
73684;SDS011;61985;51.070;14.064;2023-11-21T13:25:16;10.90;;;5.30;;
73684;SDS011;61985;51.070;14.064;2023-11-21T13:27:43;12.15;;;5.82;;
73684;SDS011;61985;51.070;14.064;2023-11-21T13:30:14;15.50;;;6.13;;
73684;SDS011;61985;51.070;14.064;2023-11-21T13:32:43;14.70;;;7.20;;
73684;SDS011;61985;51.070;14.064;2023-11-21T13:35:11;16.02;;;7.07;;
73684;SDS011;61985;51.070;14.064;2023-11-21T13:37:49;16.92;;;6.68;;
73684;SDS011;61985;51.070;14.064;2023-11-21T13:40:19;13.40;;;6.05;;
73684;SDS011;61985;51.070;14.064;2023-11-21T13:42:47;13.48;;;5.80;;
73684;SDS011;61985;51.070;14.064;2023-11-21T13:45:14;13.07;;;5.85;;
73684;SDS011;61985;51.070;14.064;2023-11-21T13:47:39;13.60;;;6.20;;
73684;SDS011;61985;51.070;14.064;2023-11-21T13:50:05;14.35;;;6.38;;
73684;SDS011;61985;51.070;14.064;2023-11-21T13:52:39;22.45;;;6.97;;
73684;SDS011;61985;51.070;14.064;2023-11-21T13:55:04;18.63;;;6.82;;
73684;SDS011;61985;51.070;14.064;2023-11-21T13:57:32;21.63;;;8.88;;
73684;SDS011;61985;51.070;14.064;2023-11-21T13:59:57;22.80;;;9.15;;
73684;SDS011;61985;51.070;14.064;2023-11-21T14:02:23;19.58;;;8.40;;
73684;SDS011;61985;51.070;14.064;2023-11-21T14:04:57;18.20;;;7.13;;
73684;SDS011;61985;51.070;14.064;2023-11-21T14:07:26;19.13;;;7.53;;
73684;SDS011;61985;51.070;14.064;2023-11-21T14:10:01;17.42;;;7.22;;
73684;SDS011;61985;51.070;14.064;2023-11-21T14:12:28;17.23;;;7.20;;
73684;SDS011;61985;51.070;14.064;2023-11-21T14:14:54;18.40;;;7.55;;
73684;SDS011;61985;51.070;14.064;2023-11-21T14:17:20;18.40;;;7.45;;
73684;SDS011;61985;51.070;14.064;2023-11-21T14:19:47;19.55;;;7.30;;
73684;SDS011;61985;51.070;14.064;2023-11-21T14:22:14;19.60;;;6.15;;
73684;SDS011;61985;51.070;14.064;2023-11-21T14:24:39;17.67;;;6.70;;
73684;SDS011;61985;51.070;14.064;2023-11-21T14:27:11;12.65;;;5.18;;
73684;SDS011;61985;51.070;14.064;2023-11-21T14:29:37;10.25;;;4.63;;
73684;SDS011;61985;51.070;14.064;2023-11-21T14:32:06;12.45;;;5.18;;
73684;SDS011;61985;51.070;14.064;2023-11-21T14:34:32;10.45;;;4.40;;
73684;SDS011;61985;51.070;14.064;2023-11-21T14:36:58;11.77;;;5.38;;
73684;SDS011;61985;51.070;14.064;2023-11-21T14:39:23;11.38;;;5.10;;
73684;SDS011;61985;51.070;14.064;2023-11-21T14:41:51;12.48;;;5.13;;
73684;SDS011;61985;51.070;14.064;2023-11-21T14:44:18;10.60;;;5.00;;
73684;SDS011;61985;51.070;14.064;2023-11-21T14:46:43;10.68;;;4.90;;
73684;SDS011;61985;51.070;14.064;2023-11-21T14:49:14;15.13;;;5.30;;
73684;SDS011;61985;51.070;14.064;2023-11-21T14:51:51;14.07;;;5.13;;
73684;SDS011;61985;51.070;14.064;2023-11-21T14:54:20;10.55;;;4.93;;
73684;SDS011;61985;51.070;14.064;2023-11-21T14:57:00;11.05;;;4.95;;
73684;SDS011;61985;51.070;14.064;2023-11-21T14:59:25;10.18;;;5.20;;
73684;SDS011;61985;51.070;14.064;2023-11-21T15:01:51;12.00;;;5.63;;
73684;SDS011;61985;51.070;14.064;2023-11-21T15:04:22;13.63;;;5.45;;